Redstone Army Air Field Redstone Arsnl Huntsville US
ICAO: KHUA
IATA: HUA
Category: Medium
Scheduled Services: No

Elevation: 684 ft
TransAlt. 18000 ft.

Airport Communications:
HUNTSVILLE APP/DEP:118.05
CTAF:126.95
GCA:124.8
BASE OPS:126.2
TWR:126.95

KHUA Zoom In..

If you have problems with the map follow the link
https://www.worldairports.se/pages/airport.php?
ICAO=KHUA

Runways:

(A) RW 17 length 7297 ft width 150 ft
---- / hdg 169

(B) RW 35 length 7297 ft width 150 ft
---- / hdg 349

Location; KHUA
Day. 07 / Time. 09.58 Zulu
* Altimeter: 30.22
* Temperature: 08° c. 46.4°f.
* Wind from: 020° Speed 06 kn.
Dewpoint: 05° c.
Visibility: 10 Statute Miles.
Clouds: Overcast 4600 ft.

KHUA 070958Z AUTO 02006KT 10SM OVC046 08/05 A3022 RMK AO2 SLP235 T00790050


Wind From 020°
Speed 06 kn.

 
 
jpsmedia worldairports.se 2019   terms of use